Time;durP1;ratioP1;P1;durP2;ratioP2;P2;SDS_P1;SDS_P2;PMS_P1;PMS_P2;Temp;Humidity;BMP_temperature;BMP_pressure;BME280_temperature;BME280_humidity;BME280_pressure;Samples;Min_cycle;Max_cycle;Signal;HPM_P1;HPM_P2
2023/05/01 00:00:19;;;;;;;12.35;7.25;;;;;;;;;;5035274;28;20644;-57
2023/05/01 00:02:49;;;;;;;10.88;6.93;;;;;;;;;;5037133;28;20046;-57
2023/05/01 00:05:15;;;;;;;11.75;7.53;;;;;;;;;;5035822;28;20049;-57
2023/05/01 00:07:41;;;;;;;17.17;9.38;;;;;;;;;;5041756;28;20029;-57
2023/05/01 00:10:08;;;;;;;16.17;9.75;;;;;;;;;;5040180;28;20057;-57
2023/05/01 00:12:34;;;;;;;18.10;10.75;;;;;;;;;;5041453;28;20438;-57
2023/05/01 00:15:00;;;;;;;21.70;13.23;;;;;;;;;;5038359;28;20057;-57
2023/05/01 00:17:27;;;;;;;17.67;11.25;;;;;;;;;;5037486;28;20049;-57
2023/05/01 00:19:53;;;;;;;21.35;12.20;;;;;;;;;;5037437;28;20049;-58
2023/05/01 00:22:19;;;;;;;20.55;12.73;;;;;;;;;;5041789;28;20037;-58
2023/05/01 00:24:47;;;;;;;22.80;13.27;;;;;;;;;;5036841;28;20498;-58
2023/05/01 00:27:14;;;;;;;21.30;12.45;;;;;;;;;;5046539;28;20048;-57
2023/05/01 00:29:41;;;;;;;20.42;12.55;;;;;;;;;;5037095;28;20048;-57
2023/05/01 00:32:07;;;;;;;22.73;12.65;;;;;;;;;;5044357;28;20473;-57
2023/05/01 00:34:33;;;;;;;25.75;14.65;;;;;;;;;;5038038;28;20053;-57
2023/05/01 00:36:59;;;;;;;23.80;13.15;;;;;;;;;;5041150;28;20056;-57
2023/05/01 00:39:26;;;;;;;23.65;13.43;;;;;;;;;;5040948;28;20045;-57
2023/05/01 00:41:53;;;;;;;23.60;14.10;;;;;;;;;;5035637;28;20030;-57
2023/05/01 00:44:21;;;;;;;25.27;14.38;;;;;;;;;;5038838;28;20039;-58
2023/05/01 00:46:47;;;;;;;24.25;14.27;;;;;;;;;;5030653;28;20033;-57
2023/05/01 00:49:14;;;;;;;22.45;13.05;;;;;;;;;;5037677;28;20045;-56
2023/05/01 00:51:41;;;;;;;26.75;14.38;;;;;;;;;;5033672;28;20373;-57
2023/05/01 00:54:07;;;;;;;23.98;13.95;;;;;;;;;;5036452;28;20049;-57
2023/05/01 00:56:34;;;;;;;24.75;13.70;;;;;;;;;;5041884;28;20064;-57
2023/05/01 00:59:00;;;;;;;27.15;14.75;;;;;;;;;;5039136;28;20426;-56
2023/05/01 01:01:27;;;;;;;22.65;13.98;;;;;;;;;;5045861;28;20047;-57
2023/05/01 01:03:53;;;;;;;24.77;14.40;;;;;;;;;;5044379;28;20032;-57
2023/05/01 01:07:02;;;;;;;28.48;14.70;;;;;;;;;;5047524;28;20510;-57
2023/05/01 01:10:19;;;;;;;25.42;14.65;;;;;;;;;;5041052;28;20118;-56
2023/05/01 01:12:57;;;;;;;32.67;15.27;;;;;;;;;;5044337;28;20037;-57
2023/05/01 01:15:34;;;;;;;25.83;14.70;;;;;;;;;;5042785;28;20044;-57
2023/05/01 01:18:07;;;;;;;26.88;14.23;;;;;;;;;;5041976;28;20029;-57
2023/05/01 01:20:45;;;;;;;27.52;14.23;;;;;;;;;;5045181;28;20045;-57
2023/05/01 01:23:29;;;;;;;30.00;15.75;;;;;;;;;;5044679;28;20426;-57
2023/05/01 01:26:10;;;;;;;26.30;14.77;;;;;;;;;;5043314;28;20037;-57
2023/05/01 01:28:51;;;;;;;29.65;15.75;;;;;;;;;;5039453;28;20495;-56
2023/05/01 01:31:21;;;;;;;29.45;15.60;;;;;;;;;;5038936;28;20049;-58
2023/05/01 01:34:08;;;;;;;28.77;15.63;;;;;;;;;;5042044;28;20041;-58
2023/05/01 01:36:42;;;;;;;33.25;16.77;;;;;;;;;;5039900;28;20029;-58
2023/05/01 01:39:11;;;;;;;27.48;16.08;;;;;;;;;;5038752;28;20045;-57
2023/05/01 01:41:40;;;;;;;32.28;17.33;;;;;;;;;;5039859;28;20041;-56
2023/05/01 01:44:20;;;;;;;31.20;16.48;;;;;;;;;;5038404;28;20041;-56
2023/05/01 01:46:50;;;;;;;32.08;15.65;;;;;;;;;;5032821;28;20395;-56
2023/05/01 01:49:22;;;;;;;32.22;16.23;;;;;;;;;;5038450;28;20038;-56
2023/05/01 01:51:50;;;;;;;31.23;15.45;;;;;;;;;;5049163;28;20053;-58
2023/05/01 01:54:22;;;;;;;34.95;17.63;;;;;;;;;;5043080;28;20033;-57
2023/05/01 01:56:50;;;;;;;36.10;16.35;;;;;;;;;;5038454;28;20045;-58
2023/05/01 01:59:18;;;;;;;35.65;18.35;;;;;;;;;;5044464;28;20056;-57
2023/05/01 02:01:46;;;;;;;36.70;19.10;;;;;;;;;;5042336;28;20041;-56
2023/05/01 02:04:14;;;;;;;35.92;18.38;;;;;;;;;;5042185;28;20045;-57
2023/05/01 02:06:43;;;;;;;34.22;17.60;;;;;;;;;;5043065;28;20041;-57
2023/05/01 02:09:10;;;;;;;37.93;18.57;;;;;;;;;;5024263;28;20049;-57
2023/05/01 02:11:38;;;;;;;39.20;19.95;;;;;;;;;;5041283;28;20388;-58
2023/05/01 02:14:05;;;;;;;35.80;19.83;;;;;;;;;;5046976;28;20053;-57
2023/05/01 02:16:33;;;;;;;36.25;18.60;;;;;;;;;;5042816;28;20399;-57
2023/05/01 02:19:02;;;;;;;40.50;19.10;;;;;;;;;;5036094;28;20045;-57
2023/05/01 02:21:30;;;;;;;37.33;18.38;;;;;;;;;;5038853;28;20394;-57
2023/05/01 02:24:00;;;;;;;31.88;17.20;;;;;;;;;;5046586;28;20406;-57
2023/05/01 02:26:28;;;;;;;32.05;17.35;;;;;;;;;;5042134;28;20036;-57
2023/05/01 02:28:54;;;;;;;31.73;16.45;;;;;;;;;;5034714;28;20064;-57
2023/05/01 02:31:21;;;;;;;32.25;17.38;;;;;;;;;;5040691;28;20033;-57
2023/05/01 02:33:48;;;;;;;34.97;17.45;;;;;;;;;;5038899;28;20060;-57
2023/05/01 02:36:14;;;;;;;34.97;16.30;;;;;;;;;;5039279;28;20033;-58
2023/05/01 02:38:41;;;;;;;34.13;17.35;;;;;;;;;;5037948;28;20033;-56
2023/05/01 02:41:10;;;;;;;34.42;17.67;;;;;;;;;;5034965;28;20048;-58
2023/05/01 02:43:40;;;;;;;35.90;16.85;;;;;;;;;;5035688;28;20036;-58
2023/05/01 02:46:09;;;;;;;34.17;17.23;;;;;;;;;;5025725;28;20044;-58
2023/05/01 02:48:37;;;;;;;33.77;16.37;;;;;;;;;;5043592;28;20036;-58
2023/05/01 02:51:04;;;;;;;32.83;16.48;;;;;;;;;;5036746;28;20777;-58
2023/05/01 02:53:31;;;;;;;37.70;17.45;;;;;;;;;;5044728;28;20029;-58
2023/05/01 02:56:05;;;;;;;30.20;15.50;;;;;;;;;;5036608;28;20061;-58
2023/05/01 02:58:31;;;;;;;31.52;15.90;;;;;;;;;;5036614;28;20521;-58
2023/05/01 03:00:58;;;;;;;32.80;15.48;;;;;;;;;;5046335;28;20041;-57
2023/05/01 03:03:24;;;;;;;29.88;15.15;;;;;;;;;;5043004;28;20069;-57
2023/05/01 03:05:51;;;;;;;33.03;15.13;;;;;;;;;;5041449;28;20140;-57
2023/05/01 03:08:17;;;;;;;33.53;15.55;;;;;;;;;;5042248;28;20056;-57
2023/05/01 03:10:43;;;;;;;31.85;15.70;;;;;;;;;;5041298;28;20056;-57
2023/05/01 03:13:10;;;;;;;32.38;15.65;;;;;;;;;;5041345;28;20045;-58
2023/05/01 03:15:37;;;;;;;32.60;16.13;;;;;;;;;;5036729;28;20418;-57
2023/05/01 03:18:04;;;;;;;28.30;15.73;;;;;;;;;;5038808;28;20044;-57
2023/05/01 03:20:30;;;;;;;28.65;14.90;;;;;;;;;;5036404;28;20037;-57
2023/05/01 03:22:56;;;;;;;32.70;15.57;;;;;;;;;;5035661;28;20030;-57
2023/05/01 03:25:23;;;;;;;28.60;14.40;;;;;;;;;;5032501;28;20037;-58
2023/05/01 03:27:49;;;;;;;31.35;15.35;;;;;;;;;;5044492;28;20625;-57
2023/05/01 03:30:15;;;;;;;27.50;13.73;;;;;;;;;;5040379;28;20032;-57
2023/05/01 03:32:43;;;;;;;27.45;14.05;;;;;;;;;;5040052;28;20036;-57
2023/05/01 03:35:16;;;;;;;28.60;14.43;;;;;;;;;;5035240;28;20037;-57
2023/05/01 03:37:43;;;;;;;29.90;14.95;;;;;;;;;;5032484;28;20487;-56
2023/05/01 03:40:12;;;;;;;32.42;16.25;;;;;;;;;;5043560;28;20048;-57
2023/05/01 03:42:57;;;;;;;35.22;16.35;;;;;;;;;;5032534;28;20057;-57
2023/05/01 03:45:23;;;;;;;38.25;18.70;;;;;;;;;;5037799;28;20033;-58
2023/05/01 03:47:49;;;;;;;34.47;17.20;;;;;;;;;;5047092;28;20514;-57
2023/05/01 03:50:16;;;;;;;29.45;16.23;;;;;;;;;;5043070;28;20441;-57
2023/05/01 03:52:44;;;;;;;43.65;18.80;;;;;;;;;;5022652;28;20045;-57
2023/05/01 03:55:10;;;;;;;37.25;16.85;;;;;;;;;;5041203;28;20049;-57
2023/05/01 03:57:40;;;;;;;32.92;15.93;;;;;;;;;;5036189;28;20037;-56
2023/05/01 04:00:08;;;;;;;25.60;13.77;;;;;;;;;;5017569;28;20045;-57
2023/05/01 04:02:46;;;;;;;22.52;12.82;;;;;;;;;;5034530;28;20048;-57
2023/05/01 04:05:17;;;;;;;19.92;11.77;;;;;;;;;;5034987;28;20041;-57
2023/05/01 04:07:48;;;;;;;18.75;10.82;;;;;;;;;;5035908;28;20050;-57
2023/05/01 04:10:16;;;;;;;19.38;10.70;;;;;;;;;;5037104;28;20049;-57
2023/05/01 04:12:49;;;;;;;19.33;10.52;;;;;;;;;;5043316;28;20041;-58
2023/05/01 04:15:15;;;;;;;20.75;10.48;;;;;;;;;;5038493;28;20042;-57
2023/05/01 04:17:42;;;;;;;18.63;11.13;;;;;;;;;;5037158;28;20020;-58
2023/05/01 04:20:09;;;;;;;16.80;10.13;;;;;;;;;;5038965;28;20407;-57
2023/05/01 04:22:36;;;;;;;17.88;10.63;;;;;;;;;;5035982;28;20038;-56
2023/05/01 04:25:03;;;;;;;17.98;10.60;;;;;;;;;;5036116;28;20050;-57
2023/05/01 04:27:30;;;;;;;16.33;10.35;;;;;;;;;;5040345;28;20040;-58
2023/05/01 04:29:56;;;;;;;19.40;10.05;;;;;;;;;;5040107;28;20412;-58
2023/05/01 04:32:23;;;;;;;18.58;10.75;;;;;;;;;;5043909;28;20514;-58
2023/05/01 04:34:49;;;;;;;15.32;9.52;;;;;;;;;;5041954;28;20025;-58
2023/05/01 04:37:17;;;;;;;12.93;8.57;;;;;;;;;;5021328;28;20045;-58
2023/05/01 04:39:43;;;;;;;14.15;9.00;;;;;;;;;;5034096;28;20037;-58
2023/05/01 04:42:09;;;;;;;11.50;8.00;;;;;;;;;;5033976;28;20041;-58
2023/05/01 04:44:37;;;;;;;12.90;8.65;;;;;;;;;;5039005;28;20041;-58
2023/05/01 04:47:04;;;;;;;11.02;7.70;;;;;;;;;;5048519;28;20045;-58
2023/05/01 04:49:31;;;;;;;10.43;7.90;;;;;;;;;;5041614;28;20396;-58
2023/05/01 04:51:57;;;;;;;11.60;7.35;;;;;;;;;;5035784;28;20041;-58
2023/05/01 04:54:27;;;;;;;11.68;7.10;;;;;;;;;;5040717;28;20036;-58
2023/05/01 04:56:54;;;;;;;9.85;6.90;;;;;;;;;;5040829;28;20064;-58
2023/05/01 04:59:20;;;;;;;7.22;6.35;;;;;;;;;;5039545;28;20044;-58
2023/05/01 05:01:47;;;;;;;8.60;6.35;;;;;;;;;;5044044;28;20033;-58
2023/05/01 05:04:13;;;;;;;8.50;6.53;;;;;;;;;;5042226;28;20030;-58
2023/05/01 05:06:39;;;;;;;9.18;6.38;;;;;;;;;;5037593;28;20063;-60
2023/05/01 05:09:11;;;;;;;9.85;6.70;;;;;;;;;;5036797;28;20041;-59
2023/05/01 05:11:37;;;;;;;7.53;5.85;;;;;;;;;;5037817;28;20037;-60
2023/05/01 05:14:07;;;;;;;7.47;6.35;;;;;;;;;;5045596;28;20049;-59
2023/05/01 05:16:33;;;;;;;9.52;6.22;;;;;;;;;;5043700;28;20035;-59
2023/05/01 05:19:00;;;;;;;9.07;6.78;;;;;;;;;;5038880;28;20052;-59
2023/05/01 05:21:30;;;;;;;8.50;6.90;;;;;;;;;;5048043;28;20059;-59
2023/05/01 05:23:57;;;;;;;8.68;7.00;;;;;;;;;;5048039;28;20287;-59
2023/05/01 05:26:25;;;;;;;9.98;6.90;;;;;;;;;;5039522;28;20060;-59
2023/05/01 05:28:52;;;;;;;7.20;6.25;;;;;;;;;;5043189;28;20414;-60
2023/05/01 05:31:18;;;;;;;8.00;6.63;;;;;;;;;;5039376;28;20041;-60
2023/05/01 05:33:45;;;;;;;7.20;6.50;;;;;;;;;;5038150;28;20045;-59
2023/05/01 05:36:13;;;;;;;10.10;7.18;;;;;;;;;;5041476;28;20044;-59
2023/05/01 05:38:42;;;;;;;7.97;6.40;;;;;;;;;;5018194;28;20037;-60
2023/05/01 05:41:11;;;;;;;10.65;6.97;;;;;;;;;;5036755;28;20072;-60
2023/05/01 05:43:39;;;;;;;10.00;6.90;;;;;;;;;;5034379;28;20080;-59
2023/05/01 05:46:06;;;;;;;10.55;6.90;;;;;;;;;;5026003;28;20045;-59
2023/05/01 05:48:35;;;;;;;8.50;6.10;;;;;;;;;;5037654;28;20430;-59
2023/05/01 05:51:01;;;;;;;9.85;7.55;;;;;;;;;;5038997;28;20045;-59
2023/05/01 05:53:27;;;;;;;11.93;8.40;;;;;;;;;;5039235;28;20040;-58
2023/05/01 05:55:54;;;;;;;11.70;8.55;;;;;;;;;;5038638;28;20045;-58
2023/05/01 05:58:21;;;;;;;14.40;9.65;;;;;;;;;;5042883;28;20049;-59
2023/05/01 06:00:49;;;;;;;11.10;8.02;;;;;;;;;;5042706;28;20029;-58
2023/05/01 06:03:15;;;;;;;10.73;8.02;;;;;;;;;;5045732;28;20056;-58
2023/05/01 06:05:43;;;;;;;11.80;8.07;;;;;;;;;;5036233;28;20044;-58
2023/05/01 06:08:09;;;;;;;10.43;7.90;;;;;;;;;;5037594;28;20063;-59
2023/05/01 06:10:36;;;;;;;9.27;7.35;;;;;;;;;;5041774;28;20028;-58
2023/05/01 06:13:02;;;;;;;10.38;7.00;;;;;;;;;;5046353;28;20640;-58
2023/05/01 06:15:29;;;;;;;8.57;7.47;;;;;;;;;;5031190;28;20430;-59
2023/05/01 06:17:55;;;;;;;9.05;7.47;;;;;;;;;;5039950;28;20050;-61
2023/05/01 06:20:22;;;;;;;11.00;8.50;;;;;;;;;;5041662;28;20399;-60
2023/05/01 06:22:50;;;;;;;13.88;8.60;;;;;;;;;;5037255;28;20052;-60
2023/05/01 06:25:22;;;;;;;9.82;7.82;;;;;;;;;;5039295;28;20045;-59
2023/05/01 06:27:50;;;;;;;11.55;7.93;;;;;;;;;;5036564;28;20057;-60
2023/05/01 06:30:18;;;;;;;11.55;7.97;;;;;;;;;;5043465;28;20376;-60
2023/05/01 06:32:45;;;;;;;12.25;8.10;;;;;;;;;;5035602;28;20411;-59
2023/05/01 06:35:12;;;;;;;10.13;8.02;;;;;;;;;;5037313;28;20036;-60
2023/05/01 06:37:39;;;;;;;11.15;8.90;;;;;;;;;;5035235;28;20052;-59
2023/05/01 06:40:08;;;;;;;10.80;8.15;;;;;;;;;;5035403;28;20048;-59
2023/05/01 06:42:39;;;;;;;11.63;8.27;;;;;;;;;;5038626;28;20532;-60
2023/05/01 06:45:06;;;;;;;14.63;10.00;;;;;;;;;;5038796;28;20034;-60
2023/05/01 06:47:33;;;;;;;15.27;10.02;;;;;;;;;;5039899;28;20041;-60
2023/05/01 06:50:00;;;;;;;13.55;9.95;;;;;;;;;;5034871;28;20072;-59
2023/05/01 06:52:26;;;;;;;10.18;7.70;;;;;;;;;;5037026;28;20044;-59
2023/05/01 06:54:52;;;;;;;10.00;8.30;;;;;;;;;;5037103;28;20056;-59
2023/05/01 06:57:19;;;;;;;11.70;9.32;;;;;;;;;;5036608;28;20033;-59
2023/05/01 06:59:45;;;;;;;12.30;8.50;;;;;;;;;;5036554;28;20033;-61
2023/05/01 07:02:11;;;;;;;11.82;9.25;;;;;;;;;;5043223;28;20415;-58
2023/05/01 07:04:37;;;;;;;12.45;9.02;;;;;;;;;;5042268;28;20060;-58
2023/05/01 07:07:03;;;;;;;11.00;9.18;;;;;;;;;;5042337;28;20037;-58
2023/05/01 07:09:30;;;;;;;12.20;9.30;;;;;;;;;;5039106;28;20422;-59
2023/05/01 07:11:57;;;;;;;14.75;9.50;;;;;;;;;;5040546;28;20055;-58
2023/05/01 07:14:23;;;;;;;10.63;8.48;;;;;;;;;;5045362;28;20033;-58
2023/05/01 07:16:49;;;;;;;11.93;9.00;;;;;;;;;;5039811;28;20491;-58
2023/05/01 07:19:16;;;;;;;14.65;9.40;;;;;;;;;;5037854;28;20033;-58
2023/05/01 07:21:42;;;;;;;10.40;8.77;;;;;;;;;;5046216;28;20052;-58
2023/05/01 07:24:08;;;;;;;12.52;8.27;;;;;;;;;;5040410;28;20040;-58
2023/05/01 07:26:35;;;;;;;11.10;8.55;;;;;;;;;;5037077;28;20034;-58
2023/05/01 07:29:01;;;;;;;12.80;8.40;;;;;;;;;;5030978;28;20526;-58
2023/05/01 07:31:27;;;;;;;16.52;10.35;;;;;;;;;;5034874;28;20045;-58
2023/05/01 07:33:53;;;;;;;13.20;9.20;;;;;;;;;;5036305;28;20037;-58
2023/05/01 07:36:21;;;;;;;11.20;8.07;;;;;;;;;;5035566;28;20032;-58
2023/05/01 07:38:47;;;;;;;12.68;8.50;;;;;;;;;;5033447;28;20056;-58
2023/05/01 07:41:13;;;;;;;13.23;8.75;;;;;;;;;;5042876;28;20422;-58
2023/05/01 07:43:40;;;;;;;12.35;9.35;;;;;;;;;;5037341;28;20521;-58
2023/05/01 07:46:06;;;;;;;22.30;12.20;;;;;;;;;;5049002;28;20044;-60
2023/05/01 07:48:32;;;;;;;18.05;11.48;;;;;;;;;;5038602;28;20036;-60
2023/05/01 07:51:02;;;;;;;11.02;9.25;;;;;;;;;;5036382;28;20447;-58
2023/05/01 07:53:29;;;;;;;10.52;8.18;;;;;;;;;;5038526;28;20028;-59
2023/05/01 07:56:05;;;;;;;10.93;8.32;;;;;;;;;;5037570;28;20038;-59
2023/05/01 07:58:32;;;;;;;10.40;8.07;;;;;;;;;;5037938;28;20029;-59
2023/05/01 08:00:59;;;;;;;11.68;7.50;;;;;;;;;;5046628;28;20041;-59
2023/05/01 08:03:28;;;;;;;11.00;7.93;;;;;;;;;;5048038;28;20029;-59
2023/05/01 08:05:55;;;;;;;12.02;8.27;;;;;;;;;;5037370;28;20066;-59
2023/05/01 08:08:21;;;;;;;9.90;7.50;;;;;;;;;;5046045;28;20039;-59
2023/05/01 08:10:47;;;;;;;11.57;8.25;;;;;;;;;;5045876;28;20037;-59
2023/05/01 08:13:14;;;;;;;12.73;9.23;;;;;;;;;;5047170;28;20033;-59
2023/05/01 08:15:41;;;;;;;11.60;8.45;;;;;;;;;;5046421;28;20037;-58
2023/05/01 08:18:08;;;;;;;12.05;8.60;;;;;;;;;;5045342;28;20510;-59
2023/05/01 08:20:35;;;;;;;12.48;9.13;;;;;;;;;;5047457;28;20618;-59
2023/05/01 08:23:01;;;;;;;9.60;8.20;;;;;;;;;;5039679;28;20053;-59
2023/05/01 08:25:28;;;;;;;11.02;8.23;;;;;;;;;;5042403;28;20080;-59
2023/05/01 08:27:54;;;;;;;8.73;7.82;;;;;;;;;;5039430;28;20025;-59
2023/05/01 08:30:20;;;;;;;11.13;8.43;;;;;;;;;;5039161;28;20045;-59
2023/05/01 08:32:47;;;;;;;11.18;8.55;;;;;;;;;;5039959;28;20045;-59
2023/05/01 08:35:13;;;;;;;11.00;8.57;;;;;;;;;;5041172;28;20071;-58
2023/05/01 08:37:39;;;;;;;10.35;7.72;;;;;;;;;;5039621;28;20033;-58
2023/05/01 08:40:09;;;;;;;9.88;8.15;;;;;;;;;;5038851;28;20041;-57
2023/05/01 08:42:38;;;;;;;10.60;7.60;;;;;;;;;;5037999;28;20033;-58
2023/05/01 08:45:08;;;;;;;10.20;7.93;;;;;;;;;;5038448;28;20033;-59
2023/05/01 08:47:37;;;;;;;11.00;8.48;;;;;;;;;;5041877;28;20045;-59
2023/05/01 08:50:08;;;;;;;11.80;8.13;;;;;;;;;;5041352;28;20041;-59
2023/05/01 08:52:37;;;;;;;11.07;8.35;;;;;;;;;;5049469;28;20061;-60
2023/05/01 08:55:03;;;;;;;10.32;7.53;;;;;;;;;;5047722;28;20036;-59
2023/05/01 08:57:31;;;;;;;10.50;8.02;;;;;;;;;;5043760;28;20037;-59
2023/05/01 08:59:57;;;;;;;10.80;7.70;;;;;;;;;;5035129;28;20045;-59
2023/05/01 09:02:26;;;;;;;10.93;7.72;;;;;;;;;;5039160;28;20034;-59
2023/05/01 09:04:53;;;;;;;11.93;8.33;;;;;;;;;;5045844;28;20040;-59
2023/05/01 09:07:19;;;;;;;9.85;7.65;;;;;;;;;;5046027;28;20295;-59
2023/05/01 09:09:46;;;;;;;10.27;7.75;;;;;;;;;;5042225;28;20045;-59
2023/05/01 09:12:24;;;;;;;11.00;8.35;;;;;;;;;;5042552;28;20049;-59
2023/05/01 09:14:55;;;;;;;10.18;8.00;;;;;;;;;;5039202;28;20033;-59
2023/05/01 09:17:22;;;;;;;10.55;7.75;;;;;;;;;;5043348;28;20037;-59
2023/05/01 09:19:49;;;;;;;8.52;7.30;;;;;;;;;;5041232;28;20032;-59
2023/05/01 09:22:17;;;;;;;9.52;7.43;;;;;;;;;;5043128;28;20052;-58
2023/05/01 09:24:44;;;;;;;11.40;7.70;;;;;;;;;;5040374;28;20037;-58
2023/05/01 09:27:13;;;;;;;9.40;7.93;;;;;;;;;;5040710;28;20487;-58
2023/05/01 09:29:41;;;;;;;9.90;7.53;;;;;;;;;;5041595;28;20037;-58
2023/05/01 09:32:29;;;;;;;10.30;7.90;;;;;;;;;;5039371;28;20052;-59
2023/05/01 09:35:08;;;;;;;10.63;8.00;;;;;;;;;;5036070;28;20431;-59
2023/05/01 09:37:35;;;;;;;;;;;;;;;;;;5052673;28;20025;-58
2023/05/01 09:40:08;;;;;;;11.88;8.68;;;;;;;;;;5042583;28;19916;-59
2023/05/01 09:42:39;;;;;;;10.48;7.95;;;;;;;;;;5039637;28;20050;-59
2023/05/01 09:45:13;;;;;;;9.52;7.35;;;;;;;;;;5042686;28;20037;-59
2023/05/01 09:47:45;;;;;;;12.52;8.88;;;;;;;;;;5043753;28;20034;-59
2023/05/01 09:50:28;;;;;;;9.68;7.53;;;;;;;;;;5042810;28;20132;-59
2023/05/01 09:52:54;;;;;;;10.38;7.93;;;;;;;;;;5038314;28;20037;-59
2023/05/01 09:55:22;;;;;;;11.35;8.02;;;;;;;;;;5040720;28;20048;-58
2023/05/01 09:57:48;;;;;;;9.70;8.23;;;;;;;;;;5040068;28;20064;-58
2023/05/01 10:00:15;;;;;;;10.23;7.97;;;;;;;;;;5041828;28;20041;-59
2023/05/01 10:02:43;;;;;;;9.15;6.75;;;;;;;;;;5043270;28;20047;-59
2023/05/01 10:05:10;;;;;;;11.80;8.13;;;;;;;;;;5044708;28;20028;-58
2023/05/01 10:07:37;;;;;;;10.60;7.70;;;;;;;;;;5045041;28;20040;-59
2023/05/01 10:10:20;;;;;;;11.07;7.93;;;;;;;;;;5043193;28;20037;-58
2023/05/01 10:12:47;;;;;;;8.90;7.60;;;;;;;;;;5043998;28;20045;-59
2023/05/01 10:15:14;;;;;;;11.35;7.97;;;;;;;;;;5039098;28;20037;-58
2023/05/01 10:17:42;;;;;;;9.05;7.30;;;;;;;;;;5038547;28;20103;-58
2023/05/01 10:20:11;;;;;;;8.90;7.22;;;;;;;;;;5038889;28;20021;-59
2023/05/01 10:22:38;;;;;;;9.27;7.20;;;;;;;;;;5044238;28;20044;-59
2023/05/01 10:25:10;;;;;;;11.52;7.10;;;;;;;;;;5039007;28;20513;-58
2023/05/01 10:27:40;;;;;;;9.48;7.07;;;;;;;;;;5042996;28;20653;-58
2023/05/01 10:30:07;;;;;;;7.88;6.50;;;;;;;;;;5035500;28;20052;-59
2023/05/01 10:32:36;;;;;;;8.00;6.65;;;;;;;;;;5042395;28;20029;-59
2023/05/01 10:35:11;;;;;;;8.18;6.43;;;;;;;;;;5036537;28;20049;-59
2023/05/01 10:37:47;;;;;;;9.82;7.07;;;;;;;;;;5040471;28;20051;-58
2023/05/01 10:40:38;;;;;;;8.65;7.30;;;;;;;;;;5040622;28;20029;-59
2023/05/01 10:43:27;;;;;;;11.48;8.32;;;;;;;;;;5041159;28;20431;-59
2023/05/01 10:46:15;;;;;;;10.45;7.20;;;;;;;;;;5038845;28;20029;-58
2023/05/01 10:48:41;;;;;;;10.70;8.70;;;;;;;;;;5038602;28;20053;-58
2023/05/01 10:51:11;;;;;;;9.98;7.68;;;;;;;;;;5044325;28;20708;-59
2023/05/01 10:53:38;;;;;;;9.60;7.78;;;;;;;;;;5045722;28;20572;-59
2023/05/01 10:56:25;;;;;;;9.25;7.30;;;;;;;;;;5045024;28;20045;-59
2023/05/01 10:58:52;;;;;;;9.10;7.60;;;;;;;;;;5033271;28;20056;-58
2023/05/01 11:01:28;;;;;;;7.88;7.07;;;;;;;;;;5039432;28;20048;-58
2023/05/01 11:03:55;;;;;;;7.68;6.68;;;;;;;;;;5041085;28;20044;-59
2023/05/01 11:06:22;;;;;;;8.55;6.88;;;;;;;;;;5047017;28;20240;-59
2023/05/01 11:08:49;;;;;;;7.97;6.78;;;;;;;;;;5043194;28;20419;-59
2023/05/01 11:11:24;;;;;;;8.07;6.70;;;;;;;;;;5045942;28;20419;-59
2023/05/01 11:14:00;;;;;;;7.35;6.60;;;;;;;;;;5038375;28;20656;-59
2023/05/01 11:16:32;;;;;;;8.18;6.88;;;;;;;;;;5036258;28;20053;-59
2023/05/01 11:18:58;;;;;;;8.38;6.78;;;;;;;;;;5037884;28;20041;-60
2023/05/01 11:21:32;;;;;;;7.65;6.75;;;;;;;;;;5043398;28;20037;-59
2023/05/01 11:23:59;;;;;;;7.45;6.57;;;;;;;;;;5040477;28;20045;-59
2023/05/01 11:26:30;;;;;;;7.85;6.75;;;;;;;;;;5037573;28;20024;-60
2023/05/01 11:28:58;;;;;;;7.72;6.57;;;;;;;;;;5044079;28;20072;-59
2023/05/01 11:31:27;;;;;;;7.93;5.97;;;;;;;;;;5035534;28;20033;-58
2023/05/01 11:33:58;;;;;;;7.95;6.50;;;;;;;;;;5039083;28;20041;-59
2023/05/01 11:36:26;;;;;;;10.13;6.88;;;;;;;;;;5036464;28;20024;-59
2023/05/01 11:38:57;;;;;;;6.85;6.15;;;;;;;;;;5037198;28;20041;-59
2023/05/01 11:41:27;;;;;;;11.40;6.70;;;;;;;;;;5034977;28;20521;-60
2023/05/01 11:43:57;;;;;;;8.73;6.72;;;;;;;;;;5039634;28;20036;-59
2023/05/01 11:46:31;;;;;;;8.93;6.10;;;;;;;;;;5043810;28;20037;-60
2023/05/01 11:49:00;;;;;;;9.55;6.68;;;;;;;;;;5037631;28;20041;-59
2023/05/01 11:51:27;;;;;;;9.15;6.75;;;;;;;;;;5034671;28;20484;-59
2023/05/01 11:54:10;;;;;;;7.30;6.45;;;;;;;;;;5037159;28;20673;-59
2023/05/01 11:56:37;;;;;;;8.95;7.05;;;;;;;;;;5045050;28;20506;-59
2023/05/01 11:59:11;;;;;;;10.75;7.07;;;;;;;;;;5038873;28;20029;-59
2023/05/01 12:01:43;;;;;;;7.70;6.55;;;;;;;;;;5038958;28;20545;-59
2023/05/01 12:04:10;;;;;;;8.68;6.60;;;;;;;;;;5040219;28;20125;-59
2023/05/01 12:06:45;;;;;;;7.70;6.75;;;;;;;;;;5034689;28;20041;-59
2023/05/01 12:09:22;;;;;;;9.80;6.93;;;;;;;;;;5035116;28;20038;-59
2023/05/01 12:11:50;;;;;;;10.05;6.95;;;;;;;;;;5044147;28;20483;-58
2023/05/01 12:14:17;;;;;;;9.38;6.85;;;;;;;;;;5040760;28;20032;-59
2023/05/01 12:16:45;;;;;;;8.63;7.20;;;;;;;;;;5044484;28;20036;-59
2023/05/01 12:19:15;;;;;;;8.55;6.57;;;;;;;;;;5040693;28;20036;-60
2023/05/01 12:21:41;;;;;;;7.35;6.60;;;;;;;;;;5040396;28;20045;-58
2023/05/01 12:24:13;;;;;;;8.27;6.30;;;;;;;;;;5042767;28;20048;-59
2023/05/01 12:26:40;;;;;;;8.52;6.78;;;;;;;;;;5035966;28;20499;-59
2023/05/01 12:29:10;;;;;;;10.77;6.72;;;;;;;;;;5036158;28;20490;-59
2023/05/01 12:31:45;;;;;;;8.93;6.53;;;;;;;;;;5033955;28;20415;-59
2023/05/01 12:34:12;;;;;;;7.43;6.20;;;;;;;;;;5038143;28;20569;-59
2023/05/01 12:36:39;;;;;;;8.45;6.07;;;;;;;;;;5038124;28;20604;-59
2023/05/01 12:39:07;;;;;;;8.25;5.93;;;;;;;;;;5036662;28;20033;-59
2023/05/01 12:41:40;;;;;;;6.77;6.07;;;;;;;;;;5043751;28;20033;-59
2023/05/01 12:44:23;;;;;;;7.03;6.03;;;;;;;;;;5034878;28;20287;-59
2023/05/01 12:47:00;;;;;;;7.90;5.85;;;;;;;;;;5034094;28;20041;-58
2023/05/01 12:49:28;;;;;;;6.72;5.90;;;;;;;;;;5038233;28;20033;-61
2023/05/01 12:51:58;;;;;;;7.22;5.57;;;;;;;;;;5043418;28;20033;-59
2023/05/01 12:54:32;;;;;;;6.80;5.82;;;;;;;;;;5043510;28;20118;-58
2023/05/01 12:57:13;;;;;;;7.43;5.60;;;;;;;;;;5043079;28;20053;-59
2023/05/01 12:59:44;;;;;;;7.65;5.70;;;;;;;;;;5041869;28;20041;-59
2023/05/01 13:02:14;;;;;;;7.70;6.00;;;;;;;;;;5044781;28;20029;-58
2023/05/01 13:04:43;;;;;;;7.22;5.35;;;;;;;;;;5043343;28;20037;-59
2023/05/01 13:07:14;;;;;;;6.63;5.15;;;;;;;;;;5043236;28;20039;-59
2023/05/01 13:10:10;;;;;;;6.88;5.25;;;;;;;;;;5045954;28;20052;-59
2023/05/01 13:12:43;;;;;;;7.05;5.20;;;;;;;;;;5040118;28;20051;-59
2023/05/01 13:15:19;;;;;;;6.25;5.60;;;;;;;;;;5036756;28;20041;-58
2023/05/01 13:17:46;;;;;;;7.03;5.38;;;;;;;;;;5036593;28;20625;-58
2023/05/01 13:20:23;;;;;;;;;;;;;;;;;;5038482;28;20029;-59
2023/05/01 13:22:50;;;;;;;8.18;5.40;;;;;;;;;;5044846;28;20378;-59
2023/05/01 13:25:19;;;;;;;6.35;5.70;;;;;;;;;;5041492;28;20040;-59
2023/05/01 13:27:52;;;;;;;6.03;4.90;;;;;;;;;;5042201;28;20029;-59
2023/05/01 13:30:29;;;;;;;6.18;5.57;;;;;;;;;;5045421;28;20045;-59
2023/05/01 13:32:55;;;;;;;7.50;4.93;;;;;;;;;;5038100;28;20046;-59
2023/05/01 13:35:23;;;;;;;5.53;4.78;;;;;;;;;;5021399;28;20032;-60
2023/05/01 13:37:51;;;;;;;8.45;5.40;;;;;;;;;;5040619;28;20049;-60
2023/05/01 13:40:18;;;;;;;6.57;4.97;;;;;;;;;;5042571;28;20045;-60
2023/05/01 13:42:45;;;;;;;5.13;4.45;;;;;;;;;;5044276;28;20403;-59
2023/05/01 13:45:12;;;;;;;6.15;4.95;;;;;;;;;;5041922;28;20037;-59
2023/05/01 13:47:41;;;;;;;6.85;5.55;;;;;;;;;;5044833;28;20044;-59
2023/05/01 13:50:12;;;;;;;;;;;;;;;;;;5038177;28;20042;-59
2023/05/01 13:52:44;;;;;;;6.05;4.85;;;;;;;;;;5039171;28;20314;-60
2023/05/01 13:55:11;;;;;;;7.22;4.95;;;;;;;;;;5035348;28;20565;-60
2023/05/01 13:57:42;;;;;;;8.30;5.22;;;;;;;;;;5040357;28;20045;-60
2023/05/01 14:00:16;;;;;;;5.97;5.03;;;;;;;;;;5039948;28;20050;-60
2023/05/01 14:02:44;;;;;;;5.75;4.72;;;;;;;;;;5046350;28;20037;-59
2023/05/01 14:05:11;;;;;;;7.22;4.90;;;;;;;;;;5049482;28;20080;-60
2023/05/01 14:08:09;;;;;;;11.30;7.38;;;;;;;;;;5037990;28;20431;-60
2023/05/01 14:10:38;;;;;;;12.40;9.23;;;;;;;;;;5038574;28;20046;-59
2023/05/01 14:13:05;;;;;;;15.75;10.38;;;;;;;;;;5042652;28;20044;-59
2023/05/01 14:15:34;;;;;;;11.48;9.30;;;;;;;;;;5040789;28;20376;-59
2023/05/01 14:18:07;;;;;;;15.27;10.55;;;;;;;;;;5046175;28;20052;-59
2023/05/01 14:20:33;;;;;;;12.63;10.90;;;;;;;;;;5040074;28;20025;-59
2023/05/01 14:22:59;;;;;;;14.30;11.73;;;;;;;;;;5028431;28;20403;-59
2023/05/01 14:25:28;;;;;;;22.27;15.52;;;;;;;;;;5039692;28;20044;-60
2023/05/01 14:27:55;;;;;;;20.52;12.38;;;;;;;;;;5036252;28;20041;-60
2023/05/01 14:30:26;;;;;;;9.35;6.45;;;;;;;;;;5036307;28;20049;-60
2023/05/01 14:32:53;;;;;;;6.45;5.22;;;;;;;;;;5046123;28;20560;-60
2023/05/01 14:35:21;;;;;;;7.50;5.88;;;;;;;;;;5041831;28;20033;-61
2023/05/01 14:37:47;;;;;;;6.30;4.47;;;;;;;;;;5043883;28;20402;-61
2023/05/01 14:40:16;;;;;;;7.60;4.90;;;;;;;;;;5046034;28;20418;-60
2023/05/01 14:42:45;;;;;;;18.08;12.07;;;;;;;;;;5047274;28;20364;-61